sensor_id;sensor_type;location;lat;lon;timestamp;pressure;altitude;pressure_sealevel;temperature;humidity
9059;BME280;4564;42.034;25.834;2024-03-22T00:00:58;100408.50;;;7.85;100.00
9059;BME280;4564;42.034;25.834;2024-03-22T00:03:23;100406.13;;;7.74;100.00
9059;BME280;4564;42.034;25.834;2024-03-22T00:05:50;100405.09;;;7.67;100.00
9059;BME280;4564;42.034;25.834;2024-03-22T00:08:17;100407.59;;;7.44;100.00
9059;BME280;4564;42.034;25.834;2024-03-22T00:10:44;100398.44;;;7.37;100.00
9059;BME280;4564;42.034;25.834;2024-03-22T00:13:10;100405.38;;;7.39;100.00
9059;BME280;4564;42.034;25.834;2024-03-22T00:15:36;100407.03;;;7.32;100.00
9059;BME280;4564;42.034;25.834;2024-03-22T00:18:02;100405.84;;;7.27;100.00
9059;BME280;4564;42.034;25.834;2024-03-22T00:20:29;100408.03;;;7.23;100.00
9059;BME280;4564;42.034;25.834;2024-03-22T00:22:54;100407.84;;;7.16;100.00
9059;BME280;4564;42.034;25.834;2024-03-22T00:25:22;100401.72;;;7.06;100.00
9059;BME280;4564;42.034;25.834;2024-03-22T00:27:48;100397.00;;;7.08;100.00
9059;BME280;4564;42.034;25.834;2024-03-22T00:30:15;100398.47;;;7.03;100.00
9059;BME280;4564;42.034;25.834;2024-03-22T00:32:40;100389.19;;;6.97;100.00
9059;BME280;4564;42.034;25.834;2024-03-22T00:35:09;100388.69;;;7.02;100.00
9059;BME280;4564;42.034;25.834;2024-03-22T00:37:35;100392.59;;;7.07;100.00
9059;BME280;4564;42.034;25.834;2024-03-22T00:40:01;100390.75;;;7.08;100.00
9059;BME280;4564;42.034;25.834;2024-03-22T00:42:28;100393.44;;;7.08;100.00
9059;BME280;4564;42.034;25.834;2024-03-22T00:44:55;100395.97;;;7.01;100.00
9059;BME280;4564;42.034;25.834;2024-03-22T00:47:23;100398.97;;;6.98;100.00
9059;BME280;4564;42.034;25.834;2024-03-22T00:49:49;100397.75;;;6.93;100.00
9059;BME280;4564;42.034;25.834;2024-03-22T00:52:15;100401.75;;;6.81;100.00
9059;BME280;4564;42.034;25.834;2024-03-22T00:54:41;100397.81;;;6.67;100.00
9059;BME280;4564;42.034;25.834;2024-03-22T00:57:08;100403.31;;;6.57;100.00
9059;BME280;4564;42.034;25.834;2024-03-22T00:59:36;100400.91;;;6.54;100.00
9059;BME280;4564;42.034;25.834;2024-03-22T01:02:02;100399.56;;;6.50;100.00
9059;BME280;4564;42.034;25.834;2024-03-22T01:04:29;100398.34;;;6.45;100.00
9059;BME280;4564;42.034;25.834;2024-03-22T01:06:55;100399.66;;;6.41;100.00
9059;BME280;4564;42.034;25.834;2024-03-22T01:09:21;100400.66;;;6.40;100.00
9059;BME280;4564;42.034;25.834;2024-03-22T01:11:48;100399.44;;;6.34;100.00
9059;BME280;4564;42.034;25.834;2024-03-22T01:14:14;100406.94;;;6.22;100.00
9059;BME280;4564;42.034;25.834;2024-03-22T01:16:41;100405.78;;;6.25;100.00
9059;BME280;4564;42.034;25.834;2024-03-22T01:19:08;100409.63;;;6.22;100.00
9059;BME280;4564;42.034;25.834;2024-03-22T01:21:34;100399.41;;;6.26;100.00
9059;BME280;4564;42.034;25.834;2024-03-22T01:24:01;100402.63;;;6.29;100.00
9059;BME280;4564;42.034;25.834;2024-03-22T01:26:26;100400.06;;;6.28;100.00
9059;BME280;4564;42.034;25.834;2024-03-22T01:28:53;100403.22;;;6.23;100.00
9059;BME280;4564;42.034;25.834;2024-03-22T01:31:18;100410.56;;;6.13;100.00
9059;BME280;4564;42.034;25.834;2024-03-22T01:33:46;100407.72;;;6.15;100.00
9059;BME280;4564;42.034;25.834;2024-03-22T01:36:12;100413.25;;;6.13;100.00
9059;BME280;4564;42.034;25.834;2024-03-22T01:38:38;100408.56;;;6.15;100.00
9059;BME280;4564;42.034;25.834;2024-03-22T01:41:04;100400.88;;;6.03;100.00
9059;BME280;4564;42.034;25.834;2024-03-22T01:43:30;100404.97;;;5.89;100.00
9059;BME280;4564;42.034;25.834;2024-03-22T01:45:56;100400.84;;;5.85;100.00
9059;BME280;4564;42.034;25.834;2024-03-22T01:48:23;100395.69;;;5.74;100.00
9059;BME280;4564;42.034;25.834;2024-03-22T01:50:50;100395.78;;;5.64;100.00
9059;BME280;4564;42.034;25.834;2024-03-22T01:53:17;100401.78;;;5.58;100.00
9059;BME280;4564;42.034;25.834;2024-03-22T01:55:43;100400.53;;;5.53;100.00
9059;BME280;4564;42.034;25.834;2024-03-22T01:58:10;100402.69;;;5.49;100.00
9059;BME280;4564;42.034;25.834;2024-03-22T02:00:37;100402.81;;;5.30;100.00
9059;BME280;4564;42.034;25.834;2024-03-22T02:03:04;100394.31;;;5.34;100.00
9059;BME280;4564;42.034;25.834;2024-03-22T02:05:30;100398.84;;;5.34;100.00
9059;BME280;4564;42.034;25.834;2024-03-22T02:07:57;100392.88;;;5.30;100.00
9059;BME280;4564;42.034;25.834;2024-03-22T02:10:23;100389.53;;;5.28;100.00
9059;BME280;4564;42.034;25.834;2024-03-22T02:12:50;100392.50;;;5.25;100.00
9059;BME280;4564;42.034;25.834;2024-03-22T02:15:16;100385.03;;;5.19;100.00
9059;BME280;4564;42.034;25.834;2024-03-22T02:17:42;100393.03;;;5.11;100.00
9059;BME280;4564;42.034;25.834;2024-03-22T02:20:08;100399.53;;;5.08;100.00
9059;BME280;4564;42.034;25.834;2024-03-22T02:22:37;100389.53;;;5.01;100.00
9059;BME280;4564;42.034;25.834;2024-03-22T02:25:05;100398.44;;;5.01;100.00
9059;BME280;4564;42.034;25.834;2024-03-22T02:27:32;100404.97;;;4.99;100.00
9059;BME280;4564;42.034;25.834;2024-03-22T02:29:58;100409.34;;;5.00;100.00
9059;BME280;4564;42.034;25.834;2024-03-22T02:32:24;100414.50;;;4.84;100.00
9059;BME280;4564;42.034;25.834;2024-03-22T02:34:50;100412.72;;;4.65;100.00
9059;BME280;4564;42.034;25.834;2024-03-22T02:37:17;100421.72;;;4.27;100.00
9059;BME280;4564;42.034;25.834;2024-03-22T02:39:42;100426.44;;;4.15;100.00
9059;BME280;4564;42.034;25.834;2024-03-22T02:42:10;100424.16;;;4.30;100.00
9059;BME280;4564;42.034;25.834;2024-03-22T02:44:36;100436.28;;;4.34;100.00
9059;BME280;4564;42.034;25.834;2024-03-22T02:47:07;100432.31;;;4.38;100.00
9059;BME280;4564;42.034;25.834;2024-03-22T02:49:33;100445.91;;;4.27;100.00
9059;BME280;4564;42.034;25.834;2024-03-22T02:51:59;100449.47;;;4.18;100.00
9059;BME280;4564;42.034;25.834;2024-03-22T02:54:25;100445.94;;;4.08;100.00
9059;BME280;4564;42.034;25.834;2024-03-22T02:56:52;100439.44;;;4.01;100.00
9059;BME280;4564;42.034;25.834;2024-03-22T02:59:19;100444.38;;;3.96;100.00
9059;BME280;4564;42.034;25.834;2024-03-22T03:01:45;100439.72;;;3.98;100.00
9059;BME280;4564;42.034;25.834;2024-03-22T03:04:11;100449.19;;;4.02;100.00
9059;BME280;4564;42.034;25.834;2024-03-22T03:06:38;100449.59;;;4.07;100.00
9059;BME280;4564;42.034;25.834;2024-03-22T03:09:03;100452.84;;;4.01;100.00
9059;BME280;4564;42.034;25.834;2024-03-22T03:11:32;100457.66;;;3.88;100.00
9059;BME280;4564;42.034;25.834;2024-03-22T03:13:58;100462.88;;;3.79;100.00
9059;BME280;4564;42.034;25.834;2024-03-22T03:16:26;100462.88;;;3.79;100.00
9059;BME280;4564;42.034;25.834;2024-03-22T03:18:51;100458.50;;;3.78;100.00
9059;BME280;4564;42.034;25.834;2024-03-22T03:21:18;100464.16;;;3.85;100.00
9059;BME280;4564;42.034;25.834;2024-03-22T03:23:44;100458.34;;;3.90;100.00
9059;BME280;4564;42.034;25.834;2024-03-22T03:26:10;100460.78;;;3.93;100.00
9059;BME280;4564;42.034;25.834;2024-03-22T03:28:36;100466.84;;;3.95;100.00
9059;BME280;4564;42.034;25.834;2024-03-22T03:31:03;100467.00;;;4.03;100.00
9059;BME280;4564;42.034;25.834;2024-03-22T03:33:30;100471.09;;;4.07;100.00
9059;BME280;4564;42.034;25.834;2024-03-22T03:35:56;100472.78;;;4.08;100.00
9059;BME280;4564;42.034;25.834;2024-03-22T03:38:22;100482.97;;;4.04;100.00
9059;BME280;4564;42.034;25.834;2024-03-22T03:40:48;100482.69;;;4.07;100.00
9059;BME280;4564;42.034;25.834;2024-03-22T03:43:14;100484.63;;;4.05;100.00
9059;BME280;4564;42.034;25.834;2024-03-22T03:45:41;100497.09;;;3.97;100.00
9059;BME280;4564;42.034;25.834;2024-03-22T03:48:07;100491.72;;;3.87;100.00
9059;BME280;4564;42.034;25.834;2024-03-22T03:50:35;100497.75;;;3.79;100.00
9059;BME280;4564;42.034;25.834;2024-03-22T03:53:00;100501.72;;;3.75;100.00
9059;BME280;4564;42.034;25.834;2024-03-22T03:55:27;100508.38;;;3.81;100.00
9059;BME280;4564;42.034;25.834;2024-03-22T03:57:52;100518.53;;;3.77;100.00
9059;BME280;4564;42.034;25.834;2024-03-22T04:00:19;100519.94;;;3.72;100.00
9059;BME280;4564;42.034;25.834;2024-03-22T04:02:45;100524.28;;;3.63;100.00
9059;BME280;4564;42.034;25.834;2024-03-22T04:05:11;100516.78;;;3.57;100.00
9059;BME280;4564;42.034;25.834;2024-03-22T04:07:38;100525.84;;;3.56;100.00
9059;BME280;4564;42.034;25.834;2024-03-22T04:10:08;100528.19;;;3.40;100.00
9059;BME280;4564;42.034;25.834;2024-03-22T04:12:33;100542.13;;;3.34;100.00
9059;BME280;4564;42.034;25.834;2024-03-22T04:15:00;100543.53;;;3.28;100.00
9059;BME280;4564;42.034;25.834;2024-03-22T04:17:25;100542.84;;;3.46;100.00
9059;BME280;4564;42.034;25.834;2024-03-22T04:19:52;100539.50;;;3.53;100.00
9059;BME280;4564;42.034;25.834;2024-03-22T04:22:18;100544.16;;;3.51;100.00
9059;BME280;4564;42.034;25.834;2024-03-22T04:24:46;100551.38;;;3.51;100.00
9059;BME280;4564;42.034;25.834;2024-03-22T04:27:11;100551.66;;;3.57;100.00
9059;BME280;4564;42.034;25.834;2024-03-22T04:29:38;100557.47;;;3.62;100.00
9059;BME280;4564;42.034;25.834;2024-03-22T04:32:03;100554.53;;;3.65;100.00
9059;BME280;4564;42.034;25.834;2024-03-22T04:34:30;100554.09;;;3.60;100.00
9059;BME280;4564;42.034;25.834;2024-03-22T04:36:56;100552.81;;;3.64;100.00
9059;BME280;4564;42.034;25.834;2024-03-22T04:39:22;100560.59;;;3.67;100.00
9059;BME280;4564;42.034;25.834;2024-03-22T04:41:51;100563.88;;;3.71;100.00
9059;BME280;4564;42.034;25.834;2024-03-22T04:44:17;100569.38;;;3.79;100.00
9059;BME280;4564;42.034;25.834;2024-03-22T04:46:43;100573.09;;;3.88;100.00
9059;BME280;4564;42.034;25.834;2024-03-22T04:49:10;100571.41;;;3.96;100.00
9059;BME280;4564;42.034;25.834;2024-03-22T04:51:35;100579.47;;;4.06;100.00
9059;BME280;4564;42.034;25.834;2024-03-22T04:54:02;100586.41;;;3.99;100.00
9059;BME280;4564;42.034;25.834;2024-03-22T04:56:28;100594.03;;;3.94;100.00
9059;BME280;4564;42.034;25.834;2024-03-22T04:58:56;100593.72;;;3.87;100.00
9059;BME280;4564;42.034;25.834;2024-03-22T05:01:21;100599.31;;;3.74;100.00
9059;BME280;4564;42.034;25.834;2024-03-22T05:03:49;100599.72;;;3.70;100.00
9059;BME280;4564;42.034;25.834;2024-03-22T05:06:14;100600.44;;;3.72;100.00
9059;BME280;4564;42.034;25.834;2024-03-22T05:08:41;100595.66;;;3.75;100.00
9059;BME280;4564;42.034;25.834;2024-03-22T05:11:06;100609.59;;;4.19;100.00
9059;BME280;4564;42.034;25.834;2024-03-22T05:13:33;100607.34;;;4.91;100.00
9059;BME280;4564;42.034;25.834;2024-03-22T05:16:00;100601.13;;;5.84;100.00
9059;BME280;4564;42.034;25.834;2024-03-22T05:18:27;100601.66;;;6.78;96.70
9059;BME280;4564;42.034;25.834;2024-03-22T05:20:52;100609.81;;;7.55;92.14
9059;BME280;4564;42.034;25.834;2024-03-22T05:23:19;100614.47;;;8.21;87.70
9059;BME280;4564;42.034;25.834;2024-03-22T05:25:44;100613.94;;;9.08;82.25
9059;BME280;4564;42.034;25.834;2024-03-22T05:28:11;100619.72;;;9.92;79.67
9059;BME280;4564;42.034;25.834;2024-03-22T05:30:36;100623.09;;;11.32;75.40
9059;BME280;4564;42.034;25.834;2024-03-22T05:33:05;100632.47;;;12.47;69.98
9059;BME280;4564;42.034;25.834;2024-03-22T05:35:30;100629.13;;;13.79;64.17
9059;BME280;4564;42.034;25.834;2024-03-22T05:37:58;100629.00;;;14.35;60.09
9059;BME280;4564;42.034;25.834;2024-03-22T05:40:23;100633.19;;;14.79;57.12
9059;BME280;4564;42.034;25.834;2024-03-22T05:42:50;100635.56;;;15.47;54.68
9059;BME280;4564;42.034;25.834;2024-03-22T05:45:16;100635.13;;;15.77;53.40
9059;BME280;4564;42.034;25.834;2024-03-22T05:47:43;100645.69;;;15.73;53.55
9059;BME280;4564;42.034;25.834;2024-03-22T05:50:10;100644.38;;;15.89;51.32
9059;BME280;4564;42.034;25.834;2024-03-22T05:52:36;100642.09;;;16.50;49.55
9059;BME280;4564;42.034;25.834;2024-03-22T05:55:02;100640.34;;;16.69;47.00
9059;BME280;4564;42.034;25.834;2024-03-22T05:57:29;100647.72;;;16.68;42.34
9059;BME280;4564;42.034;25.834;2024-03-22T05:59:55;100646.22;;;17.10;41.90
9059;BME280;4564;42.034;25.834;2024-03-22T06:02:22;100650.59;;;17.18;41.25
9059;BME280;4564;42.034;25.834;2024-03-22T06:04:48;100658.59;;;18.00;40.43
9059;BME280;4564;42.034;25.834;2024-03-22T06:07:16;100661.53;;;18.60;38.92
9059;BME280;4564;42.034;25.834;2024-03-22T06:09:42;100660.72;;;18.17;38.12
9059;BME280;4564;42.034;25.834;2024-03-22T06:12:12;100670.81;;;17.80;40.20
9059;BME280;4564;42.034;25.834;2024-03-22T06:14:39;100665.34;;;17.98;39.53
9059;BME280;4564;42.034;25.834;2024-03-22T06:17:06;100654.31;;;18.04;39.28
9059;BME280;4564;42.034;25.834;2024-03-22T06:19:31;100658.88;;;18.11;39.31
9059;BME280;4564;42.034;25.834;2024-03-22T06:21:58;100670.03;;;17.73;38.53
9059;BME280;4564;42.034;25.834;2024-03-22T06:24:25;100672.78;;;17.97;38.05
9059;BME280;4564;42.034;25.834;2024-03-22T06:26:52;100672.06;;;17.84;37.08
9059;BME280;4564;42.034;25.834;2024-03-22T06:29:17;100670.78;;;17.86;36.19
9059;BME280;4564;42.034;25.834;2024-03-22T06:31:44;100674.59;;;18.03;38.76
9059;BME280;4564;42.034;25.834;2024-03-22T06:34:09;100674.75;;;18.09;38.90
9059;BME280;4564;42.034;25.834;2024-03-22T06:36:36;100675.94;;;17.45;39.00
9059;BME280;4564;42.034;25.834;2024-03-22T06:39:03;100673.94;;;17.65;37.72
9059;BME280;4564;42.034;25.834;2024-03-22T06:41:33;100667.41;;;17.28;39.56
9059;BME280;4564;42.034;25.834;2024-03-22T06:43:59;100676.38;;;17.73;36.99
9059;BME280;4564;42.034;25.834;2024-03-22T06:46:25;100675.97;;;17.38;38.55
9059;BME280;4564;42.034;25.834;2024-03-22T06:48:51;100677.50;;;17.34;40.37
9059;BME280;4564;42.034;25.834;2024-03-22T06:51:18;100680.81;;;17.74;37.77
9059;BME280;4564;42.034;25.834;2024-03-22T06:53:44;100693.47;;;17.75;38.71
9059;BME280;4564;42.034;25.834;2024-03-22T06:56:13;100684.69;;;18.10;38.61
9059;BME280;4564;42.034;25.834;2024-03-22T06:58:40;100678.94;;;18.54;35.85
9059;BME280;4564;42.034;25.834;2024-03-22T07:01:06;100679.63;;;17.57;38.69
9059;BME280;4564;42.034;25.834;2024-03-22T07:03:32;100673.69;;;17.67;37.90
9059;BME280;4564;42.034;25.834;2024-03-22T07:05:59;100666.16;;;18.23;37.19
9059;BME280;4564;42.034;25.834;2024-03-22T07:08:24;100670.34;;;18.26;36.47
9059;BME280;4564;42.034;25.834;2024-03-22T07:10:51;100677.97;;;18.06;37.82
9059;BME280;4564;42.034;25.834;2024-03-22T07:13:18;100683.94;;;18.94;34.51
9059;BME280;4564;42.034;25.834;2024-03-22T07:15:46;100678.47;;;19.05;35.67
9059;BME280;4564;42.034;25.834;2024-03-22T07:18:12;100684.00;;;18.87;34.21
9059;BME280;4564;42.034;25.834;2024-03-22T07:20:39;100682.53;;;19.44;33.62
9059;BME280;4564;42.034;25.834;2024-03-22T07:23:05;100678.28;;;18.52;34.60
9059;BME280;4564;42.034;25.834;2024-03-22T07:25:31;100676.38;;;17.73;34.50
9059;BME280;4564;42.034;25.834;2024-03-22T07:27:57;100684.66;;;17.91;35.95
9059;BME280;4564;42.034;25.834;2024-03-22T07:30:24;100683.25;;;18.07;33.99
9059;BME280;4564;42.034;25.834;2024-03-22T07:32:51;100684.19;;;16.69;37.26
9059;BME280;4564;42.034;25.834;2024-03-22T07:35:18;100685.06;;;16.63;37.44
9059;BME280;4564;42.034;25.834;2024-03-22T07:37:44;100686.16;;;17.00;37.38
9059;BME280;4564;42.034;25.834;2024-03-22T07:40:10;100683.97;;;17.15;35.88
9059;BME280;4564;42.034;25.834;2024-03-22T07:42:36;100678.13;;;17.05;39.85
9059;BME280;4564;42.034;25.834;2024-03-22T07:45:02;100686.63;;;17.59;35.80
9059;BME280;4564;42.034;25.834;2024-03-22T07:47:29;100674.78;;;18.27;34.52
9059;BME280;4564;42.034;25.834;2024-03-22T07:49:56;100673.94;;;18.44;35.99
9059;BME280;4564;42.034;25.834;2024-03-22T07:52:23;100680.81;;;18.54;33.58
9059;BME280;4564;42.034;25.834;2024-03-22T07:54:49;100684.81;;;17.15;34.64
9059;BME280;4564;42.034;25.834;2024-03-22T07:57:16;100679.03;;;16.92;36.77
9059;BME280;4564;42.034;25.834;2024-03-22T07:59:42;100683.09;;;17.46;36.46
9059;BME280;4564;42.034;25.834;2024-03-22T08:02:09;100673.56;;;18.23;34.66
9059;BME280;4564;42.034;25.834;2024-03-22T08:04:35;100676.31;;;18.23;33.16
9059;BME280;4564;42.034;25.834;2024-03-22T08:07:03;100676.88;;;18.98;30.63
9059;BME280;4564;42.034;25.834;2024-03-22T08:09:28;100668.06;;;18.41;32.13
9059;BME280;4564;42.034;25.834;2024-03-22T08:11:55;100687.41;;;17.67;36.58
9059;BME280;4564;42.034;25.834;2024-03-22T08:14:21;100682.31;;;17.70;35.32
9059;BME280;4564;42.034;25.834;2024-03-22T08:16:47;100675.13;;;17.06;34.63
9059;BME280;4564;42.034;25.834;2024-03-22T08:19:13;100679.56;;;17.07;37.57
9059;BME280;4564;42.034;25.834;2024-03-22T08:21:39;100675.31;;;17.74;35.49
9059;BME280;4564;42.034;25.834;2024-03-22T08:24:06;100677.00;;;17.44;32.93
9059;BME280;4564;42.034;25.834;2024-03-22T08:26:33;100674.34;;;17.31;34.10
9059;BME280;4564;42.034;25.834;2024-03-22T08:28:58;100669.81;;;16.80;34.03
9059;BME280;4564;42.034;25.834;2024-03-22T08:31:25;100670.25;;;16.06;35.15
9059;BME280;4564;42.034;25.834;2024-03-22T08:33:53;100677.69;;;15.60;37.38
9059;BME280;4564;42.034;25.834;2024-03-22T08:36:21;100675.16;;;15.58;39.00
9059;BME280;4564;42.034;25.834;2024-03-22T08:38:46;100671.78;;;15.56;39.11
9059;BME280;4564;42.034;25.834;2024-03-22T08:41:14;100674.09;;;14.65;37.30
9059;BME280;4564;42.034;25.834;2024-03-22T08:43:40;100666.25;;;14.15;39.36
9059;BME280;4564;42.034;25.834;2024-03-22T08:46:07;100672.03;;;13.99;40.17
9059;BME280;4564;42.034;25.834;2024-03-22T08:48:32;100670.81;;;14.01;39.34
9059;BME280;4564;42.034;25.834;2024-03-22T08:50:59;100658.25;;;14.07;40.10
9059;BME280;4564;42.034;25.834;2024-03-22T08:53:24;100670.13;;;14.27;40.97
9059;BME280;4564;42.034;25.834;2024-03-22T08:55:51;100668.81;;;14.16;39.27
9059;BME280;4564;42.034;25.834;2024-03-22T08:58:18;100671.63;;;13.67;37.00
9059;BME280;4564;42.034;25.834;2024-03-22T09:00:44;100672.16;;;13.56;39.19
9059;BME280;4564;42.034;25.834;2024-03-22T09:03:10;100661.84;;;13.79;38.82
9059;BME280;4564;42.034;25.834;2024-03-22T09:05:37;100663.38;;;13.61;38.50
9059;BME280;4564;42.034;25.834;2024-03-22T09:08:03;100660.31;;;13.42;41.20
9059;BME280;4564;42.034;25.834;2024-03-22T09:10:30;100654.94;;;13.28;41.38
9059;BME280;4564;42.034;25.834;2024-03-22T09:12:55;100662.59;;;13.18;40.63
9059;BME280;4564;42.034;25.834;2024-03-22T09:15:23;100661.84;;;13.09;39.87
9059;BME280;4564;42.034;25.834;2024-03-22T09:17:51;100659.22;;;13.16;40.91
9059;BME280;4564;42.034;25.834;2024-03-22T09:20:17;100657.78;;;13.20;39.40
9059;BME280;4564;42.034;25.834;2024-03-22T09:22:43;100656.72;;;12.99;37.70
9059;BME280;4564;42.034;25.834;2024-03-22T09:25:09;100658.94;;;13.11;37.74
9059;BME280;4564;42.034;25.834;2024-03-22T09:27:35;100651.97;;;12.87;40.13
9059;BME280;4564;42.034;25.834;2024-03-22T09:30:02;100649.19;;;13.01;40.46
9059;BME280;4564;42.034;25.834;2024-03-22T09:32:30;100651.56;;;13.26;39.96
9059;BME280;4564;42.034;25.834;2024-03-22T09:34:57;100643.22;;;12.91;40.34
9059;BME280;4564;42.034;25.834;2024-03-22T09:37:22;100649.00;;;13.03;40.01
9059;BME280;4564;42.034;25.834;2024-03-22T09:39:49;100651.38;;;12.91;40.02
9059;BME280;4564;42.034;25.834;2024-03-22T09:42:16;100644.97;;;12.78;40.90
9059;BME280;4564;42.034;25.834;2024-03-22T09:44:43;100650.03;;;12.81;41.04
9059;BME280;4564;42.034;25.834;2024-03-22T09:47:12;100646.44;;;12.59;40.71
9059;BME280;4564;42.034;25.834;2024-03-22T09:49:42;100649.69;;;12.90;41.31
9059;BME280;4564;42.034;25.834;2024-03-22T09:52:11;100639.97;;;12.81;41.26
9059;BME280;4564;42.034;25.834;2024-03-22T09:54:38;100636.28;;;12.89;41.29
9059;BME280;4564;42.034;25.834;2024-03-22T09:57:06;100636.38;;;12.59;39.56
9059;BME280;4564;42.034;25.834;2024-03-22T09:59:33;100632.63;;;12.60;40.84
9059;BME280;4564;42.034;25.834;2024-03-22T10:01:59;100623.97;;;12.72;41.38
9059;BME280;4564;42.034;25.834;2024-03-22T10:04:28;100623.78;;;12.94;40.45
9059;BME280;4564;42.034;25.834;2024-03-22T10:06:55;100629.56;;;13.06;41.26
9059;BME280;4564;42.034;25.834;2024-03-22T10:09:27;100625.06;;;12.98;40.03
9059;BME280;4564;42.034;25.834;2024-03-22T10:11:53;100621.25;;;12.93;41.25
9059;BME280;4564;42.034;25.834;2024-03-22T10:14:20;100622.53;;;12.97;40.12
9059;BME280;4564;42.034;25.834;2024-03-22T10:16:45;100621.31;;;12.99;40.11
9059;BME280;4564;42.034;25.834;2024-03-22T10:19:12;100614.97;;;13.14;40.58
9059;BME280;4564;42.034;25.834;2024-03-22T10:21:38;100604.50;;;13.17;39.78
9059;BME280;4564;42.034;25.834;2024-03-22T10:24:06;100612.91;;;13.16;38.18
9059;BME280;4564;42.034;25.834;2024-03-22T10:26:33;100605.31;;;12.90;38.56
9059;BME280;4564;42.034;25.834;2024-03-22T10:29:00;100606.44;;;12.81;38.87
9059;BME280;4564;42.034;25.834;2024-03-22T10:31:25;100597.75;;;12.92;37.33
9059;BME280;4564;42.034;25.834;2024-03-22T10:33:54;100594.13;;;13.06;38.01
9059;BME280;4564;42.034;25.834;2024-03-22T10:36:19;100593.09;;;12.86;37.98
9059;BME280;4564;42.034;25.834;2024-03-22T10:38:46;100586.69;;;12.72;39.63
9059;BME280;4564;42.034;25.834;2024-03-22T10:41:18;100582.69;;;12.96;39.90
9059;BME280;4564;42.034;25.834;2024-03-22T10:43:44;100583.69;;;13.10;38.43
9059;BME280;4564;42.034;25.834;2024-03-22T10:46:10;100579.91;;;13.11;38.16
9059;BME280;4564;42.034;25.834;2024-03-22T10:48:37;100580.94;;;13.10;36.97
9059;BME280;4564;42.034;25.834;2024-03-22T10:51:03;100578.50;;;13.15;37.98
9059;BME280;4564;42.034;25.834;2024-03-22T10:53:32;100573.72;;;13.17;37.03
9059;BME280;4564;42.034;25.834;2024-03-22T10:55:57;100574.47;;;13.11;36.38
9059;BME280;4564;42.034;25.834;2024-03-22T10:58:27;100568.97;;;13.04;36.36
9059;BME280;4564;42.034;25.834;2024-03-22T11:00:53;100564.22;;;13.13;36.32
9059;BME280;4564;42.034;25.834;2024-03-22T11:03:20;100564.09;;;13.21;36.26
9059;BME280;4564;42.034;25.834;2024-03-22T11:05:46;100560.97;;;13.02;36.62
9059;BME280;4564;42.034;25.834;2024-03-22T11:08:13;100548.84;;;13.05;36.17
9059;BME280;4564;42.034;25.834;2024-03-22T11:10:38;100559.34;;;13.08;35.98
9059;BME280;4564;42.034;25.834;2024-03-22T11:13:06;100551.91;;;13.17;36.24
9059;BME280;4564;42.034;25.834;2024-03-22T11:15:33;100550.72;;;13.04;36.96
9059;BME280;4564;42.034;25.834;2024-03-22T11:18:00;100548.34;;;12.95;37.64
9059;BME280;4564;42.034;25.834;2024-03-22T11:20:26;100539.72;;;13.13;37.02
9059;BME280;4564;42.034;25.834;2024-03-22T11:22:53;100537.16;;;13.11;36.64
9059;BME280;4564;42.034;25.834;2024-03-22T11:25:19;100533.09;;;13.22;34.43
9059;BME280;4564;42.034;25.834;2024-03-22T11:27:46;100530.75;;;13.19;34.19
9059;BME280;4564;42.034;25.834;2024-03-22T11:30:11;100525.81;;;13.08;34.06
9059;BME280;4564;42.034;25.834;2024-03-22T11:32:39;100526.97;;;13.20;33.65
9059;BME280;4564;42.034;25.834;2024-03-22T11:35:09;100524.38;;;13.39;34.80
9059;BME280;4564;42.034;25.834;2024-03-22T11:37:36;100507.84;;;13.13;33.51
9059;BME280;4564;42.034;25.834;2024-03-22T11:40:02;100509.19;;;13.24;33.57
9059;BME280;4564;42.034;25.834;2024-03-22T11:42:31;100510.56;;;13.41;33.37
9059;BME280;4564;42.034;25.834;2024-03-22T11:45:00;100511.44;;;13.48;34.21
9059;BME280;4564;42.034;25.834;2024-03-22T11:47:30;100501.00;;;13.58;33.52
9059;BME280;4564;42.034;25.834;2024-03-22T11:49:57;100492.59;;;13.53;33.00
9059;BME280;4564;42.034;25.834;2024-03-22T11:52:24;100490.34;;;13.63;33.76
9059;BME280;4564;42.034;25.834;2024-03-22T11:54:50;100497.28;;;13.72;34.04
9059;BME280;4564;42.034;25.834;2024-03-22T11:57:17;100492.66;;;13.66;34.14
9059;BME280;4564;42.034;25.834;2024-03-22T11:59:43;100491.16;;;13.57;34.68
9059;BME280;4564;42.034;25.834;2024-03-22T12:02:10;100490.34;;;13.63;33.90
9059;BME280;4564;42.034;25.834;2024-03-22T12:04:36;100482.97;;;13.57;34.89
9059;BME280;4564;42.034;25.834;2024-03-22T12:07:10;100472.88;;;13.51;35.33
9059;BME280;4564;42.034;25.834;2024-03-22T12:09:35;100477.59;;;13.70;34.80
9059;BME280;4564;42.034;25.834;2024-03-22T12:12:03;100473.56;;;13.66;34.87
9059;BME280;4564;42.034;25.834;2024-03-22T12:14:29;100469.84;;;13.74;34.09
9059;BME280;4564;42.034;25.834;2024-03-22T12:16:55;100484.75;;;13.78;33.85
9059;BME280;4564;42.034;25.834;2024-03-22T12:19:21;100465.22;;;13.74;34.34
9059;BME280;4564;42.034;25.834;2024-03-22T12:21:48;100458.72;;;13.75;34.56
9059;BME280;4564;42.034;25.834;2024-03-22T12:24:15;100454.53;;;13.79;34.69
9059;BME280;4564;42.034;25.834;2024-03-22T12:26:41;100456.16;;;13.67;34.90
9059;BME280;4564;42.034;25.834;2024-03-22T12:29:07;100454.09;;;13.69;34.86
9059;BME280;4564;42.034;25.834;2024-03-22T12:31:37;100454.13;;;13.89;35.03
9059;BME280;4564;42.034;25.834;2024-03-22T12:34:02;100457.91;;;13.88;34.20
9059;BME280;4564;42.034;25.834;2024-03-22T12:36:29;100450.34;;;13.83;35.46
9059;BME280;4564;42.034;25.834;2024-03-22T12:38:54;100451.66;;;14.01;34.71
9059;BME280;4564;42.034;25.834;2024-03-22T12:41:22;100442.38;;;13.88;34.49
9059;BME280;4564;42.034;25.834;2024-03-22T12:43:49;100437.53;;;13.71;33.86
9059;BME280;4564;42.034;25.834;2024-03-22T12:46:14;100435.88;;;13.90;35.30
9059;BME280;4564;42.034;25.834;2024-03-22T12:48:41;100434.81;;;13.84;34.34
9059;BME280;4564;42.034;25.834;2024-03-22T12:51:06;100435.66;;;13.84;35.02
9059;BME280;4564;42.034;25.834;2024-03-22T12:53:33;100432.75;;;13.99;33.98
9059;BME280;4564;42.034;25.834;2024-03-22T12:55:59;100426.94;;;14.09;34.28